createdAt,value
2019-01-18T00:01:58.185Z,95.70
2019-01-18T00:04:05.941Z,95.00
2019-01-18T00:06:10.902Z,94.90
2019-01-18T00:08:16.316Z,94.90
2019-01-18T00:10:21.046Z,95.10
2019-01-18T00:12:28.071Z,95.90
2019-01-18T00:14:32.877Z,95.80
2019-01-18T00:16:37.651Z,95.60
2019-01-18T00:18:42.475Z,95.40
2019-01-18T00:20:48.076Z,95.20
2019-01-18T00:22:52.931Z,95.50
2019-01-18T00:24:57.677Z,95.70
2019-01-18T00:27:06.311Z,95.90
2019-01-18T00:29:15.690Z,96.20
2019-01-18T00:31:20.761Z,96.10
2019-01-18T00:33:25.808Z,96.20
2019-01-18T00:35:30.495Z,96.20
2019-01-18T00:37:36.496Z,96.20
2019-01-18T00:39:41.502Z,96.30
2019-01-18T00:41:49.043Z,96.30
2019-01-18T00:43:56.550Z,96.30
2019-01-18T00:46:03.091Z,96.30
2019-01-18T00:48:08.197Z,96.40
2019-01-18T00:50:14.394Z,96.60
2019-01-18T00:52:28.376Z,96.70
2019-01-18T00:54:33.128Z,96.70
2019-01-18T00:56:37.844Z,96.70
2019-01-18T00:58:43.322Z,96.60
2019-01-18T01:00:48.214Z,96.50
2019-01-18T01:02:53.036Z,96.40
2019-01-18T01:04:57.892Z,96.50
2019-01-18T01:07:04.540Z,96.70
2019-01-18T01:09:09.598Z,96.60
2019-01-18T01:11:14.720Z,96.80
2019-01-18T01:13:19.901Z,96.60
2019-01-18T01:15:30.465Z,96.30
2019-01-18T01:17:38.715Z,96.10
2019-01-18T01:19:43.727Z,96.30
2019-01-18T01:21:48.536Z,96.20
2019-01-18T01:23:53.577Z,96.30
2019-01-18T01:25:59.977Z,96.30
2019-01-18T01:28:05.760Z,96.30
2019-01-18T01:30:30.641Z,96.20
2019-01-18T01:32:35.420Z,96.00
2019-01-18T01:34:40.257Z,96.30
2019-01-18T01:36:46.331Z,96.40
2019-01-18T01:38:52.283Z,96.20
2019-01-18T01:40:57.314Z,96.10
2019-01-18T01:43:04.536Z,95.90
2019-01-18T01:45:12.996Z,95.70
2019-01-18T01:47:18.875Z,96.00
2019-01-18T01:49:23.932Z,96.20
2019-01-18T01:51:28.602Z,96.30
2019-01-18T01:53:33.337Z,96.40
2019-01-18T01:55:38.078Z,96.40
2019-01-18T01:57:42.791Z,96.40
2019-01-18T01:59:49.999Z,96.50
2019-01-18T02:01:54.210Z,96.50
2019-01-18T02:03:58.958Z,96.50
2019-01-18T02:06:03.822Z,96.50
2019-01-18T02:08:08.964Z,96.60
2019-01-18T02:10:15.883Z,96.40
2019-01-18T02:12:20.618Z,96.50
2019-01-18T02:14:25.632Z,96.30
2019-01-18T02:16:30.351Z,96.00
2019-01-18T02:18:35.072Z,96.00
2019-01-18T02:20:39.788Z,96.10
2019-01-18T02:22:44.525Z,96.10
2019-01-18T02:24:50.154Z,96.00
2019-01-18T02:26:56.243Z,96.00
2019-01-18T02:29:00.972Z,95.80
2019-01-18T02:31:06.328Z,95.60
2019-01-18T02:33:11.486Z,95.60
2019-01-18T02:35:16.484Z,95.60
2019-01-18T02:37:22.785Z,95.60
2019-01-18T02:39:27.835Z,95.60
2019-01-18T02:41:32.650Z,95.80
2019-01-18T02:43:37.425Z,96.00
2019-01-18T02:45:42.162Z,96.00
2019-01-18T02:47:50.314Z,96.20
2019-01-18T02:49:56.142Z,96.40
2019-01-18T02:52:01.119Z,96.60
2019-01-18T02:54:05.826Z,96.50
2019-01-18T02:56:10.649Z,96.50
2019-01-18T02:58:17.314Z,96.40
2019-01-18T03:00:26.829Z,96.10
2019-01-18T03:02:31.511Z,96.00
2019-01-18T03:04:36.619Z,95.90
2019-01-18T03:06:41.352Z,95.90
2019-01-18T03:08:46.108Z,96.00
2019-01-18T03:10:53.084Z,95.90
2019-01-18T03:12:57.762Z,95.90
2019-01-18T03:15:04.001Z,95.90
2019-01-18T03:17:09.169Z,95.90
2019-01-18T03:19:13.908Z,95.70
2019-01-18T03:21:18.895Z,95.50
2019-01-18T03:23:24.063Z,95.30
2019-01-18T03:25:29.849Z,95.60
2019-01-18T03:27:35.498Z,95.50
2019-01-18T03:29:42.316Z,95.40
2019-01-18T03:31:47.069Z,95.30
2019-01-18T03:33:51.781Z,95.60
2019-01-18T03:35:56.806Z,95.60
2019-01-18T03:38:01.404Z,95.50
2019-01-18T03:40:06.929Z,95.30
2019-01-18T03:42:11.936Z,95.50
2019-01-18T03:44:16.703Z,95.60
2019-01-18T03:46:21.430Z,95.70
2019-01-18T03:48:26.025Z,95.70
2019-01-18T03:50:30.640Z,95.80
2019-01-18T03:52:37.024Z,95.80
2019-01-18T03:54:42.069Z,95.80
2019-01-18T03:56:46.831Z,95.80
2019-01-18T03:58:51.617Z,95.80
2019-01-18T04:00:58.709Z,95.70
2019-01-18T04:03:03.458Z,95.50
2019-01-18T04:05:08.958Z,95.20
2019-01-18T04:07:14.010Z,95.00
2019-01-18T04:09:18.750Z,95.20
2019-01-18T04:11:23.579Z,95.30
2019-01-18T04:13:28.375Z,95.30
2019-01-18T04:15:33.204Z,95.20
2019-01-18T04:17:41.930Z,95.10
2019-01-18T04:19:47.083Z,95.40
2019-01-18T04:21:54.902Z,95.50
2019-01-18T04:24:00.394Z,95.40
2019-01-18T04:26:07.184Z,95.50
2019-01-18T04:28:12.754Z,95.20
2019-01-18T04:30:22.513Z,95.30
2019-01-18T04:32:28.621Z,95.40
2019-01-18T04:34:39.441Z,95.60
2019-01-18T04:36:45.179Z,95.60
2019-01-18T04:38:52.098Z,96.00
2019-01-18T04:40:58.677Z,95.80
2019-01-18T04:43:03.945Z,95.70
2019-01-18T04:45:09.251Z,95.70
2019-01-18T04:47:14.145Z,95.70
2019-01-18T04:49:18.989Z,95.50
2019-01-18T04:51:24.450Z,95.80
2019-01-18T04:53:29.499Z,95.80
2019-01-18T04:55:34.285Z,95.50
2019-01-18T04:57:45.586Z,95.50
2019-01-18T04:59:51.220Z,95.70
2019-01-18T05:01:56.502Z,96.00
2019-01-18T05:04:01.363Z,95.90
2019-01-18T05:06:06.262Z,96.10
2019-01-18T05:08:11.079Z,96.10
2019-01-18T05:10:17.056Z,96.00
2019-01-18T05:12:24.428Z,95.80
2019-01-18T05:14:29.654Z,95.90
2019-01-18T05:16:35.321Z,95.90
2019-01-18T05:18:40.134Z,95.90
2019-01-18T05:20:44.969Z,95.90
2019-01-18T05:22:51.460Z,95.90
2019-01-18T05:24:56.241Z,96.00
2019-01-18T05:27:03.971Z,96.00
2019-01-18T05:29:08.948Z,96.10
2019-01-18T05:31:13.669Z,96.20
2019-01-18T05:33:18.661Z,96.30
2019-01-18T05:35:24.867Z,96.40
2019-01-18T05:37:30.938Z,96.20
2019-01-18T05:39:38.943Z,96.10
2019-01-18T05:41:43.642Z,95.70
2019-01-18T05:43:48.477Z,95.40
2019-01-18T05:45:53.354Z,94.80
2019-01-18T05:47:59.616Z,94.50
2019-01-18T05:50:04.460Z,94.70
2019-01-18T05:52:15.511Z,94.60
2019-01-18T05:54:22.882Z,94.20
2019-01-18T05:56:27.876Z,94.40
2019-01-18T05:58:34.271Z,94.70
2019-01-18T06:01:01.328Z,94.80
2019-01-18T06:03:07.204Z,95.10
2019-01-18T06:05:13.970Z,95.30
2019-01-18T06:07:19.148Z,95.20
2019-01-18T06:09:25.090Z,95.30
2019-01-18T06:11:29.848Z,95.80
2019-01-18T06:13:35.031Z,96.20
2019-01-18T06:15:40.540Z,96.20
2019-01-18T06:17:47.735Z,96.40
2019-01-18T06:19:58.051Z,96.50
2019-01-18T06:22:02.798Z,96.70
2019-01-18T06:24:08.866Z,96.40
2019-01-18T06:26:13.825Z,96.20
2019-01-18T06:28:18.594Z,96.00
2019-01-18T06:30:30.351Z,96.10
2019-01-18T06:32:37.540Z,96.20
2019-01-18T06:34:42.295Z,96.00
2019-01-18T06:37:03.027Z,95.90
2019-01-18T06:39:13.517Z,95.70
2019-01-18T06:41:40.015Z,95.70
2019-01-18T06:43:48.196Z,95.60
2019-01-18T06:45:53.458Z,95.40
2019-01-18T06:47:58.259Z,95.30
2019-01-18T06:50:06.029Z,95.30
2019-01-18T06:52:12.106Z,95.30
2019-01-18T06:54:18.728Z,95.00
2019-01-18T06:56:24.024Z,94.80
2019-01-18T06:58:33.321Z,94.70
2019-01-18T07:00:41.468Z,94.50
2019-01-18T07:02:46.223Z,94.40
2019-01-18T07:04:55.539Z,94.40
2019-01-18T07:07:00.215Z,94.50
2019-01-18T07:09:08.318Z,94.40
2019-01-18T07:11:13.057Z,94.50
2019-01-18T07:13:17.855Z,94.50
2019-01-18T07:15:24.665Z,94.40
2019-01-18T07:17:31.683Z,94.50
2019-01-18T07:19:36.586Z,94.40
2019-01-18T07:21:41.346Z,94.40
2019-01-18T07:23:46.867Z,94.40
2019-01-18T07:25:52.555Z,94.40
2019-01-18T07:27:57.385Z,94.50
2019-01-18T07:30:07.128Z,94.50
2019-01-18T07:32:14.736Z,94.60
2019-01-18T07:34:22.268Z,94.70
2019-01-18T07:36:27.006Z,94.80
2019-01-18T07:38:31.766Z,94.70
2019-01-18T07:40:38.686Z,94.70
2019-01-18T07:42:43.728Z,94.80
2019-01-18T07:44:48.350Z,94.80
2019-01-18T07:47:10.478Z,94.90
2019-01-18T07:49:17.626Z,94.70
2019-01-18T07:51:26.972Z,94.60
2019-01-18T07:53:32.192Z,94.50
2019-01-18T07:55:37.374Z,94.50
2019-01-18T07:57:42.191Z,94.50
2019-01-18T07:59:53.942Z,94.10
2019-01-18T08:02:04.748Z,93.70
2019-01-18T08:04:11.358Z,93.40
2019-01-18T08:06:19.023Z,93.00
2019-01-18T08:08:27.528Z,92.80
2019-01-18T08:10:36.007Z,92.70
2019-01-18T08:12:54.124Z,92.50
2019-01-18T08:15:16.455Z,92.50
2019-01-18T08:17:28.279Z,92.70
2019-01-18T08:19:34.112Z,92.70
2019-01-18T08:21:49.696Z,92.80
2019-01-18T08:23:58.051Z,92.90
2019-01-18T08:26:04.346Z,92.90
2019-01-18T08:28:19.342Z,92.90
2019-01-18T08:30:28.763Z,92.90
2019-01-18T08:32:49.110Z,92.80
2019-01-18T08:34:59.678Z,92.90
2019-01-18T08:37:07.728Z,92.80
2019-01-18T08:39:13.448Z,92.70
2019-01-18T08:41:25.287Z,92.70
2019-01-18T08:43:38.827Z,92.70
2019-01-18T08:45:54.726Z,92.30
2019-01-18T08:48:07.210Z,92.00
2019-01-18T08:50:32.501Z,91.80
2019-01-18T08:52:37.322Z,91.70
2019-01-18T08:54:42.576Z,91.70
2019-01-18T08:56:49.096Z,91.60
2019-01-18T08:58:55.893Z,91.30
2019-01-18T09:01:04.143Z,90.80
2019-01-18T09:03:23.754Z,90.50
2019-01-18T09:05:34.084Z,91.10
2019-01-18T09:07:39.667Z,91.10
2019-01-18T09:09:44.550Z,91.00
2019-01-18T09:11:49.381Z,90.60
2019-01-18T09:13:59.843Z,90.20
2019-01-18T09:16:02.939Z,90.40
2019-01-18T09:18:11.368Z,90.20
2019-01-18T09:20:21.787Z,89.20
2019-01-18T09:22:27.798Z,89.50
2019-01-18T09:24:32.677Z,89.60
2019-01-18T09:26:41.827Z,90.00
2019-01-18T09:28:46.611Z,89.80
2019-01-18T09:30:56.251Z,90.00
2019-01-18T09:33:06.355Z,90.40
2019-01-18T09:35:12.916Z,91.30
2019-01-18T09:37:34.545Z,91.40
2019-01-18T09:39:40.937Z,91.40
2019-01-18T09:41:45.740Z,91.50
2019-01-18T09:43:51.115Z,91.30
2019-01-18T09:46:07.533Z,90.60
2019-01-18T09:48:16.999Z,90.70
2019-01-18T09:50:32.434Z,90.80
2019-01-18T09:52:37.458Z,90.70
2019-01-18T09:54:45.912Z,90.70
2019-01-18T09:56:59.496Z,90.80
2019-01-18T09:59:12.428Z,90.30
2019-01-18T10:01:23.333Z,89.90
2019-01-18T10:03:31.192Z,90.10
2019-01-18T10:05:37.509Z,90.30
2019-01-18T10:07:42.489Z,90.10
2019-01-18T10:09:47.348Z,90.20
2019-01-18T10:11:59.552Z,90.40
2019-01-18T10:14:09.870Z,90.00
2019-01-18T10:16:17.508Z,89.80
2019-01-18T10:18:23.582Z,90.10
2019-01-18T10:20:28.592Z,90.10
2019-01-18T10:22:35.574Z,89.50
2019-01-18T10:24:44.394Z,89.40
2019-01-18T10:26:59.008Z,88.20
2019-01-18T10:29:12.657Z,89.00
2019-01-18T10:31:25.990Z,88.60
2019-01-18T10:33:31.206Z,88.80
2019-01-18T10:35:36.041Z,89.20
2019-01-18T10:37:42.928Z,89.80
2019-01-18T10:39:52.829Z,88.10
2019-01-18T10:42:14.110Z,87.60
2019-01-18T10:44:27.536Z,87.60
2019-01-18T10:49:31.329Z,89.70
2019-01-18T10:51:41.649Z,89.00
2019-01-18T10:53:49.007Z,89.70
2019-01-18T10:55:54.405Z,89.60
2019-01-18T10:57:59.314Z,89.70
2019-01-18T11:00:29.108Z,89.40
2019-01-18T11:02:35.047Z,89.40
2019-01-18T11:04:39.885Z,89.90
2019-01-18T11:06:45.120Z,90.10
2019-01-18T11:08:51.572Z,90.30
2019-01-18T11:10:58.076Z,90.40
2019-01-18T11:13:03.252Z,90.70
2019-01-18T11:15:18.027Z,91.10
2019-01-18T11:17:25.155Z,91.40
2019-01-18T11:19:30.557Z,91.60
2019-01-18T11:21:35.998Z,91.70
2019-01-18T11:23:44.452Z,91.60
2019-01-18T11:25:49.219Z,91.30
2019-01-18T11:27:55.290Z,91.20
2019-01-18T11:30:00.391Z,91.30
2019-01-18T11:32:13.700Z,91.50
2019-01-18T11:34:29.660Z,91.30
2019-01-18T11:36:34.559Z,91.20
2019-01-18T11:38:43.212Z,91.20
2019-01-18T11:40:52.645Z,91.30
2019-01-18T11:42:57.733Z,91.20
2019-01-18T11:45:06.947Z,90.80
2019-01-18T11:47:24.983Z,90.50
2019-01-18T11:49:34.557Z,90.80
2019-01-18T11:51:39.444Z,91.10
2019-01-18T11:53:44.607Z,91.20
2019-01-18T11:55:52.854Z,91.20
2019-01-18T11:57:57.474Z,91.30
2019-01-18T12:00:26.353Z,91.20
2019-01-18T12:02:34.901Z,91.20
2019-01-18T12:11:21.137Z,90.90
2019-01-18T12:13:30.422Z,90.60
2019-01-18T12:15:36.931Z,90.30
2019-01-18T12:17:41.976Z,89.20
2019-01-18T12:19:50.669Z,87.80
2019-01-18T12:21:56.887Z,88.00
2019-01-18T12:24:02.851Z,89.00
2019-01-18T12:26:12.427Z,88.70
2019-01-18T12:28:22.562Z,89.50
2019-01-18T12:30:38.937Z,89.40
2019-01-18T12:35:13.446Z,89.70
2019-01-18T12:37:37.073Z,89.90
2019-01-18T12:39:42.135Z,90.00
2019-01-18T12:41:47.064Z,90.50
2019-01-18T12:43:56.598Z,90.60
2019-01-18T12:46:05.577Z,90.50
2019-01-18T12:48:13.638Z,90.60
2019-01-18T12:50:34.184Z,90.50
2019-01-18T12:52:39.842Z,90.30
2019-01-18T12:54:50.618Z,90.50
2019-01-18T12:57:02.716Z,90.60
2019-01-18T12:59:07.459Z,90.50
2019-01-18T13:01:12.781Z,90.40
2019-01-18T13:03:32.985Z,90.10
2019-01-18T13:05:52.611Z,90.20
2019-01-18T13:07:57.484Z,90.20
2019-01-18T13:10:11.683Z,90.40
2019-01-18T13:12:17.032Z,90.20
2019-01-18T13:14:28.722Z,90.30
2019-01-18T13:16:47.913Z,90.40
2019-01-18T13:19:16.297Z,90.30
2019-01-18T13:21:21.506Z,90.10
2019-01-18T13:23:32.102Z,90.20
2019-01-18T13:25:53.973Z,89.30
2019-01-18T13:28:02.983Z,89.00
2019-01-18T13:30:15.555Z,89.00
2019-01-18T13:32:20.401Z,87.60
2019-01-18T13:34:26.521Z,87.40
2019-01-18T13:36:31.661Z,87.80
2019-01-18T13:39:01.013Z,87.00
2019-01-18T13:41:08.107Z,87.00
2019-01-18T13:43:14.376Z,87.90
2019-01-18T13:45:24.383Z,87.80
2019-01-18T13:47:31.198Z,87.30
2019-01-18T13:49:36.164Z,87.30
2019-01-18T13:51:51.431Z,87.50
2019-01-18T13:53:58.682Z,87.50
2019-01-18T13:56:05.211Z,87.40
2019-01-18T13:58:12.422Z,85.80
2019-01-18T14:00:18.058Z,85.80
2019-01-18T14:02:23.218Z,85.90
2019-01-18T14:04:31.603Z,86.40
2019-01-18T14:06:37.387Z,87.00
2019-01-18T14:08:45.671Z,87.30
2019-01-18T14:10:50.596Z,87.30
2019-01-18T14:12:56.958Z,87.30
2019-01-18T14:15:06.438Z,87.90
2019-01-18T14:17:11.447Z,87.90
2019-01-18T14:19:19.647Z,87.80
2019-01-18T14:21:49.506Z,87.80
2019-01-18T14:23:54.342Z,87.70
2019-01-18T14:26:02.459Z,87.40
2019-01-18T14:28:11.039Z,87.60
2019-01-18T14:30:24.684Z,87.70
2019-01-18T14:32:47.187Z,88.30
2019-01-18T14:34:53.314Z,88.70
2019-01-18T14:37:07.262Z,89.20
2019-01-18T14:39:13.920Z,88.50
2019-01-18T14:41:30.949Z,88.50
2019-01-18T14:43:31.829Z,88.60
2019-01-18T14:45:44.401Z,88.60
2019-01-18T14:47:56.922Z,88.80
2019-01-18T14:50:07.412Z,89.20
2019-01-18T14:52:19.337Z,89.30
2019-01-18T14:54:26.884Z,89.00
2019-01-18T14:56:34.576Z,88.80
2019-01-18T14:58:51.372Z,88.90
2019-01-18T15:01:08.301Z,88.90
2019-01-18T15:03:20.857Z,88.90
2019-01-18T15:05:28.328Z,89.30
2019-01-18T15:08:00.783Z,89.60
2019-01-18T15:10:05.234Z,90.20
2019-01-18T15:12:12.409Z,90.20
2019-01-18T15:14:21.291Z,90.00
2019-01-18T15:16:31.136Z,90.00
2019-01-18T15:18:39.338Z,90.20
2019-01-18T15:20:48.550Z,90.30
2019-01-18T15:22:53.999Z,90.30
2019-01-18T15:25:06.439Z,90.20
2019-01-18T15:27:18.753Z,90.50
2019-01-18T15:29:46.287Z,90.60
2019-01-18T15:31:56.272Z,90.80
2019-01-18T15:34:01.308Z,91.00
2019-01-18T15:36:12.171Z,90.90
2019-01-18T15:38:17.600Z,90.70
2019-01-18T15:40:29.418Z,90.70
2019-01-18T15:42:38.180Z,90.40
2019-01-18T15:44:44.513Z,90.30
2019-01-18T15:46:53.699Z,90.30
2019-01-18T15:49:06.480Z,90.50
2019-01-18T15:51:33.113Z,90.70
2019-01-18T15:53:47.335Z,90.60
2019-01-18T15:55:58.590Z,90.50
2019-01-18T15:58:11.092Z,90.40
2019-01-18T16:00:35.387Z,90.40
2019-01-18T16:02:43.429Z,90.30
2019-01-18T16:04:52.147Z,90.30
2019-01-18T16:06:58.357Z,90.50
2019-01-18T16:09:06.233Z,90.70
2019-01-18T16:11:15.832Z,90.70
2019-01-18T16:13:26.906Z,90.50
2019-01-18T16:15:45.094Z,90.50
2019-01-18T16:17:54.360Z,90.50
2019-01-18T16:20:09.842Z,90.80
2019-01-18T16:22:32.345Z,91.00
2019-01-18T16:24:46.789Z,91.20
2019-01-18T16:26:53.455Z,91.00
2019-01-18T16:28:59.289Z,90.90
2019-01-18T16:31:07.248Z,91.00
2019-01-18T16:33:13.797Z,91.10
2019-01-18T16:35:25.290Z,91.10
2019-01-18T16:37:32.691Z,91.10
2019-01-18T16:39:43.970Z,91.40
2019-01-18T16:41:53.333Z,91.80
2019-01-18T16:44:06.649Z,92.00
2019-01-18T16:46:12.552Z,92.10
2019-01-18T16:48:23.234Z,92.50
2019-01-18T16:50:31.343Z,92.80
2019-01-18T16:52:41.220Z,93.10
2019-01-18T16:54:48.206Z,93.20
2019-01-18T16:56:55.062Z,93.40
2019-01-18T16:59:00.808Z,93.50
2019-01-18T17:01:09.627Z,93.60
2019-01-18T17:03:20.682Z,94.00
2019-01-18T17:05:29.344Z,94.10
2019-01-18T17:07:35.533Z,94.50
2019-01-18T17:09:41.866Z,94.70
2019-01-18T17:11:47.490Z,94.80
2019-01-18T17:14:02.172Z,94.90
2019-01-18T17:16:10.562Z,95.30
2019-01-18T17:18:22.036Z,95.50
2019-01-18T17:20:39.100Z,95.80
2019-01-18T17:22:45.085Z,95.90
2019-01-18T17:24:50.929Z,96.00
2019-01-18T17:27:09.957Z,96.20
2019-01-18T17:29:20.750Z,96.30
2019-01-18T17:31:33.025Z,96.10
2019-01-18T17:33:40.939Z,96.20
2019-01-18T17:36:16.765Z,96.40
2019-01-18T17:38:59.488Z,96.50
2019-01-18T17:41:39.612Z,96.60
2019-01-18T17:44:38.263Z,96.60
2019-01-18T17:47:30.067Z,96.70
2019-01-18T17:50:31.783Z,96.80
2019-01-18T17:53:33.521Z,96.90
2019-01-18T17:56:31.682Z,96.60
2019-01-18T17:59:26.286Z,96.40
2019-01-18T18:02:13.074Z,96.40
2019-01-18T18:05:06.071Z,96.10
2019-01-18T18:08:10.599Z,96.00
2019-01-18T18:10:40.228Z,96.00
2019-01-18T18:13:36.470Z,95.80
2019-01-18T18:16:27.130Z,95.70
2019-01-18T18:19:07.886Z,95.70
2019-01-18T18:22:09.022Z,95.70
2019-01-18T18:24:38.772Z,95.60
2019-01-18T18:27:33.584Z,95.70
2019-01-18T18:30:25.335Z,95.70
2019-01-18T18:33:04.439Z,95.50
2019-01-18T18:35:42.356Z,95.30
2019-01-18T18:38:47.968Z,95.40
2019-01-18T18:41:37.643Z,95.20
2019-01-18T18:47:17.302Z,95.00
2019-01-18T18:50:22.272Z,94.90
2019-01-18T18:53:23.826Z,94.80
2019-01-18T18:55:55.853Z,94.90
2019-01-18T18:58:42.937Z,94.80
2019-01-18T19:01:30.632Z,94.60
2019-01-18T19:04:06.071Z,94.50
2019-01-18T19:07:03.385Z,94.60
2019-01-18T19:10:02.587Z,94.50
2019-01-18T19:13:00.587Z,94.70
2019-01-18T19:15:45.877Z,94.50
2019-01-18T19:18:45.265Z,94.40
2019-01-18T19:21:33.241Z,94.10
2019-01-18T19:24:05.468Z,94.30
2019-01-18T19:26:36.738Z,94.10
2019-01-18T19:29:20.523Z,94.30
2019-01-18T19:32:14.670Z,94.30
2019-01-18T19:35:03.236Z,94.30
2019-01-18T19:37:59.788Z,94.40
2019-01-18T19:40:52.379Z,94.50
2019-01-18T19:44:03.638Z,94.50
2019-01-18T19:46:35.290Z,94.50
2019-01-18T19:49:39.563Z,94.40
2019-01-18T19:52:03.869Z,94.40
2019-01-18T19:54:50.043Z,94.40
2019-01-18T19:57:08.995Z,94.70
2019-01-18T19:59:38.982Z,94.60
2019-01-18T20:02:20.221Z,94.60
2019-01-18T20:05:04.558Z,94.50
2019-01-18T20:07:49.026Z,94.60
2019-01-18T20:10:49.495Z,94.50
2019-01-18T20:13:38.321Z,94.80
2019-01-18T20:16:26.008Z,94.90
2019-01-18T20:19:18.963Z,94.90
2019-01-18T20:21:54.815Z,94.80
2019-01-18T20:24:41.994Z,94.80
2019-01-18T20:27:29.217Z,94.80
2019-01-18T20:30:29.126Z,94.90
2019-01-18T20:35:15.363Z,96.00
2019-01-18T20:37:46.590Z,96.50
2019-01-18T20:40:20.925Z,95.90
2019-01-18T20:43:16.327Z,95.40
2019-01-18T20:45:58.129Z,95.60
2019-01-18T20:48:39.995Z,95.50
2019-01-18T20:51:24.958Z,95.40
2019-01-18T20:54:23.746Z,95.30
2019-01-18T20:56:49.645Z,95.80
2019-01-18T20:59:39.526Z,95.90
2019-01-18T21:02:14.911Z,96.00
2019-01-18T21:04:59.460Z,96.40
2019-01-18T21:07:30.480Z,96.40
2019-01-18T21:09:53.427Z,96.40
2019-01-18T21:12:47.400Z,96.50
2019-01-18T21:15:27.019Z,96.50
2019-01-18T21:18:21.182Z,96.50
2019-01-18T21:21:11.511Z,96.50
2019-01-18T21:24:16.300Z,96.50
2019-01-18T21:26:58.309Z,96.20
2019-01-18T21:29:54.257Z,96.30
2019-01-18T21:32:43.745Z,96.20
2019-01-18T21:35:16.535Z,96.00
2019-01-18T21:37:44.202Z,96.30
2019-01-18T21:40:44.071Z,96.20
2019-01-18T21:43:59.085Z,96.10
2019-01-18T21:46:29.812Z,96.40
2019-01-18T21:49:15.403Z,96.60
2019-01-18T21:51:48.466Z,96.60
2019-01-18T21:54:11.277Z,96.40
2019-01-18T21:57:06.488Z,96.40
2019-01-18T22:00:07.993Z,96.20
2019-01-18T22:03:05.463Z,96.50
2019-01-18T22:05:50.380Z,96.50
2019-01-18T22:08:35.193Z,96.60
2019-01-18T22:11:21.253Z,96.40
2019-01-18T22:14:12.408Z,96.30
2019-01-18T22:16:59.018Z,96.40
2019-01-18T22:20:08.332Z,96.60
2019-01-18T22:23:02.067Z,96.40
2019-01-18T22:25:38.847Z,96.20
2019-01-18T22:28:25.291Z,96.00
2019-01-18T22:31:28.290Z,95.90
2019-01-18T22:33:51.088Z,96.00
2019-01-18T22:36:53.778Z,96.00
2019-01-18T22:39:29.427Z,95.70
2019-01-18T22:42:24.070Z,95.80
2019-01-18T22:44:52.119Z,95.90
2019-01-18T22:47:37.208Z,95.80
2019-01-18T22:50:00.342Z,95.90
2019-01-18T22:52:35.721Z,95.80
2019-01-18T22:55:09.856Z,95.70
2019-01-18T22:57:32.711Z,95.70
2019-01-18T23:00:01.739Z,95.80
2019-01-18T23:02:50.964Z,96.00
2019-01-18T23:05:29.214Z,96.30
2019-01-18T23:08:00.263Z,96.40
2019-01-18T23:10:28.062Z,96.50
2019-01-18T23:12:50.772Z,96.40
2019-01-18T23:15:31.950Z,96.40
2019-01-18T23:18:18.452Z,96.40
2019-01-18T23:21:10.324Z,96.40
2019-01-18T23:23:50.568Z,96.20
2019-01-18T23:27:03.441Z,96.10
2019-01-18T23:29:19.731Z,96.10
2019-01-18T23:31:53.349Z,96.00
2019-01-18T23:34:12.335Z,96.10
2019-01-18T23:36:31.314Z,96.10
2019-01-18T23:39:37.878Z,96.00
2019-01-18T23:42:08.968Z,95.60
2019-01-18T23:45:01.765Z,95.70
2019-01-18T23:47:56.900Z,95.60
2019-01-18T23:50:51.216Z,95.70
2019-01-18T23:53:44.450Z,95.80
2019-01-18T23:56:28.404Z,95.80
2019-01-18T23:59:10.793Z,95.80
